createdAt,value
2023-05-09T00:01:21.691Z,100788.88
2023-05-09T00:04:09.447Z,100785.66
2023-05-09T00:06:57.271Z,100786.91
2023-05-09T00:09:44.842Z,100797.41
2023-05-09T00:12:32.567Z,100802.00
2023-05-09T00:15:20.393Z,100761.34
2023-05-09T00:18:08.422Z,100777.72
2023-05-09T00:20:57.021Z,100770.09
2023-05-09T00:23:44.596Z,100781.97
2023-05-09T00:26:32.631Z,100786.94
2023-05-09T00:29:23.091Z,100776.31
2023-05-09T00:32:11.320Z,100794.84
2023-05-09T00:34:59.175Z,100787.47
2023-05-09T00:37:46.883Z,100788.97
2023-05-09T00:40:34.577Z,100801.16
2023-05-09T00:43:22.226Z,100785.75
2023-05-09T00:46:10.102Z,100799.56
2023-05-09T00:48:57.968Z,100796.00
2023-05-09T00:51:46.352Z,100767.28
2023-05-09T00:54:34.505Z,100796.00
2023-05-09T00:57:23.212Z,100790.22
2023-05-09T01:00:13.572Z,100762.19
2023-05-09T01:03:01.559Z,100809.50
2023-05-09T01:06:07.292Z,100800.03
2023-05-09T01:09:23.291Z,100810.41
2023-05-09T01:12:29.600Z,100807.03
2023-05-09T01:15:42.469Z,100814.16
2023-05-09T01:18:46.169Z,100820.63
2023-05-09T01:21:35.671Z,100821.31
2023-05-09T01:24:48.288Z,100822.41
2023-05-09T01:27:51.247Z,100825.69
2023-05-09T01:30:41.020Z,100826.31
2023-05-09T01:33:31.888Z,100821.19
2023-05-09T01:36:23.702Z,100824.31
2023-05-09T01:39:13.912Z,100810.28
2023-05-09T01:42:05.016Z,100827.25
2023-05-09T01:44:54.556Z,100820.28
2023-05-09T01:47:43.472Z,100793.59
2023-05-09T01:50:35.805Z,100826.84
2023-05-09T01:53:24.993Z,100822.66
2023-05-09T01:56:15.736Z,100803.28
2023-05-09T01:59:06.915Z,100833.00
2023-05-09T02:01:56.010Z,100795.06
2023-05-09T02:04:45.159Z,100838.97
2023-05-09T02:07:42.421Z,100829.50
2023-05-09T02:10:44.796Z,100812.72
2023-05-09T02:13:38.580Z,100834.91
2023-05-09T02:16:27.976Z,100831.28
2023-05-09T02:19:17.135Z,100837.47
2023-05-09T02:22:05.359Z,100836.41
2023-05-09T02:24:54.151Z,100827.19
2023-05-09T02:27:44.624Z,100832.88
2023-05-09T02:30:39.297Z,100839.72
2023-05-09T02:33:28.427Z,100845.25
2023-05-09T02:36:17.540Z,100843.63
2023-05-09T02:39:05.494Z,100846.69
2023-05-09T02:41:53.191Z,100852.88
2023-05-09T02:44:41.162Z,100841.03
2023-05-09T02:47:29.056Z,100837.84
2023-05-09T02:50:19.008Z,100840.06
2023-05-09T02:53:06.794Z,100835.16
2023-05-09T02:55:55.061Z,100843.19
2023-05-09T02:58:51.517Z,100849.72
2023-05-09T03:01:39.708Z,100824.25
2023-05-09T03:04:30.697Z,100856.84
2023-05-09T03:07:18.610Z,100841.63
2023-05-09T03:10:07.461Z,100834.75
2023-05-09T03:12:55.285Z,100858.50
2023-05-09T03:15:43.013Z,100859.31
2023-05-09T03:18:33.317Z,100866.78
2023-05-09T03:21:21.592Z,100874.94
2023-05-09T03:24:11.301Z,100862.34
2023-05-09T03:26:59.030Z,100876.53
2023-05-09T03:29:46.945Z,100858.25
2023-05-09T03:32:39.254Z,100870.06
2023-05-09T03:35:26.984Z,100863.66
2023-05-09T03:38:15.965Z,100873.69
2023-05-09T03:41:04.503Z,100883.38
2023-05-09T03:43:53.410Z,100860.47
2023-05-09T03:46:41.230Z,100888.72
2023-05-09T03:49:29.646Z,100891.00
2023-05-09T03:52:17.426Z,100881.28
2023-05-09T03:55:06.414Z,100899.56
2023-05-09T03:57:56.596Z,100874.50
2023-05-09T04:00:45.801Z,100903.41
2023-05-09T04:03:40.719Z,100910.13
2023-05-09T04:06:30.269Z,100907.72
2023-05-09T04:09:19.643Z,100906.59
2023-05-09T04:12:09.234Z,100908.69
2023-05-09T04:14:57.106Z,100901.75
2023-05-09T04:17:46.201Z,100918.91
2023-05-09T04:20:34.097Z,100924.91
2023-05-09T04:23:22.418Z,100935.56
2023-05-09T04:26:12.541Z,100929.09
2023-05-09T04:29:04.858Z,100924.97
2023-05-09T04:31:53.440Z,100926.50
2023-05-09T04:34:44.668Z,100931.19
2023-05-09T04:37:38.049Z,100932.53
2023-05-09T04:40:27.008Z,100930.06
2023-05-09T04:43:19.263Z,100942.75
2023-05-09T04:46:08.101Z,100948.34
2023-05-09T04:48:56.512Z,100927.16
2023-05-09T04:51:44.244Z,100957.91
2023-05-09T04:54:32.028Z,100946.34
2023-05-09T04:57:19.791Z,100949.69
2023-05-09T05:00:13.971Z,100957.78
2023-05-09T05:03:02.229Z,100941.91
2023-05-09T05:05:51.402Z,100938.81
2023-05-09T05:08:39.136Z,100957.41
2023-05-09T05:11:27.076Z,100913.78
2023-05-09T05:14:15.024Z,100951.44
2023-05-09T05:17:02.905Z,100956.13
2023-05-09T05:19:50.685Z,100943.69
2023-05-09T05:22:39.040Z,100945.31
2023-05-09T05:25:27.012Z,100939.47
2023-05-09T05:28:16.160Z,100913.06
2023-05-09T05:31:03.900Z,100963.75
2023-05-09T05:33:51.562Z,100970.75
2023-05-09T05:36:40.209Z,100954.41
2023-05-09T05:39:28.259Z,100974.84
2023-05-09T05:42:15.961Z,100967.22
2023-05-09T05:45:07.000Z,100974.19
2023-05-09T05:47:59.602Z,100975.00
2023-05-09T05:50:47.451Z,100973.72
2023-05-09T05:53:38.063Z,100977.56
2023-05-09T05:56:26.409Z,100971.28
2023-05-09T05:59:14.273Z,100980.97
2023-05-09T06:02:03.005Z,100977.75
2023-05-09T06:04:52.265Z,100979.84
2023-05-09T06:07:47.010Z,100991.72
2023-05-09T06:10:37.648Z,100975.75
2023-05-09T06:13:25.348Z,100992.56
2023-05-09T06:16:20.327Z,100988.13
2023-05-09T06:19:11.809Z,100983.75
2023-05-09T06:21:59.590Z,100979.97
2023-05-09T06:24:47.289Z,100988.25
2023-05-09T06:27:35.064Z,100982.31
2023-05-09T06:30:26.999Z,100978.59
2023-05-09T06:33:15.027Z,100968.63
2023-05-09T06:36:02.743Z,100985.84
2023-05-09T06:38:50.496Z,100982.00
2023-05-09T06:41:38.156Z,100976.41
2023-05-09T06:44:26.126Z,100957.09
2023-05-09T06:47:13.918Z,100970.97
2023-05-09T06:50:01.695Z,100953.69
2023-05-09T06:52:49.334Z,100977.69
2023-05-09T06:55:37.076Z,100985.19
2023-05-09T06:58:24.806Z,100966.97
2023-05-09T07:01:12.564Z,100948.03
2023-05-09T07:04:01.948Z,100962.53
2023-05-09T07:06:49.671Z,100966.66
2023-05-09T07:09:37.420Z,100969.03
2023-05-09T07:12:26.222Z,100975.34
2023-05-09T07:15:18.337Z,100971.97
2023-05-09T07:18:10.810Z,100979.72
2023-05-09T07:20:58.468Z,100957.81
2023-05-09T07:23:46.029Z,100986.22
2023-05-09T07:26:35.371Z,100978.28
2023-05-09T07:29:23.056Z,100975.69
2023-05-09T07:32:11.336Z,100981.47
2023-05-09T07:34:59.158Z,100958.47
2023-05-09T07:37:46.960Z,100971.16
2023-05-09T07:40:36.684Z,100972.06
2023-05-09T07:43:24.374Z,100932.47
2023-05-09T07:46:12.005Z,100986.34
2023-05-09T07:49:00.052Z,100972.34
2023-05-09T07:51:48.053Z,100985.59
2023-05-09T07:54:35.770Z,100991.03
2023-05-09T07:57:26.110Z,100992.75
2023-05-09T08:00:15.371Z,100985.97
2023-05-09T08:03:03.105Z,100990.09
2023-05-09T08:05:58.334Z,100990.94
2023-05-09T08:08:46.447Z,101003.03
2023-05-09T08:11:35.449Z,101002.91
2023-05-09T08:14:23.161Z,101000.97
2023-05-09T08:17:10.878Z,100952.25
2023-05-09T08:19:58.570Z,101001.81
2023-05-09T08:22:46.247Z,100998.50
2023-05-09T08:25:34.050Z,101001.50
2023-05-09T08:28:24.539Z,101002.22
2023-05-09T08:31:12.189Z,101009.31
2023-05-09T08:33:59.851Z,101003.75
2023-05-09T08:36:47.708Z,101009.91
2023-05-09T08:39:35.561Z,101003.38
2023-05-09T08:42:26.233Z,100974.06
2023-05-09T08:45:15.391Z,101005.94
2023-05-09T08:48:04.248Z,101006.41
2023-05-09T08:50:56.336Z,101001.88
2023-05-09T08:53:44.345Z,100998.81
2023-05-09T08:56:32.151Z,100995.81
2023-05-09T08:59:19.961Z,101001.84
2023-05-09T09:02:08.457Z,101005.94
2023-05-09T09:04:56.691Z,100998.84
2023-05-09T09:07:45.548Z,100991.78
2023-05-09T09:10:33.632Z,101007.91
2023-05-09T09:13:22.263Z,101010.38
2023-05-09T09:16:20.898Z,100994.78
2023-05-09T09:19:13.393Z,101014.41
2023-05-09T09:22:06.096Z,101018.31
2023-05-09T09:24:53.840Z,100991.72
2023-05-09T09:27:42.171Z,101008.41
2023-05-09T09:30:29.967Z,101023.09
2023-05-09T09:33:26.001Z,100982.41
2023-05-09T09:36:16.441Z,100984.72
2023-05-09T09:39:05.596Z,101008.53
2023-05-09T09:41:53.552Z,101000.19
2023-05-09T09:44:41.281Z,101011.84
2023-05-09T09:47:34.794Z,101015.53
2023-05-09T09:50:25.834Z,101003.50
2023-05-09T09:53:13.617Z,100997.06
2023-05-09T09:56:04.761Z,101005.50
2023-05-09T09:59:08.927Z,100990.16
2023-05-09T10:01:59.158Z,101007.94
2023-05-09T10:04:46.825Z,100993.09
2023-05-09T10:07:35.734Z,101003.53
2023-05-09T10:10:26.418Z,101005.13
2023-05-09T10:13:14.342Z,101002.38
2023-05-09T10:16:02.542Z,100997.22
2023-05-09T10:18:50.449Z,100986.72
2023-05-09T10:21:40.333Z,100936.25
2023-05-09T10:25:03.174Z,100989.13
2023-05-09T10:27:54.450Z,100983.47
2023-05-09T10:31:18.441Z,100980.41
2023-05-09T10:34:10.896Z,100960.31
2023-05-09T10:37:00.698Z,100969.09
2023-05-09T10:39:53.916Z,100968.50
2023-05-09T10:42:44.342Z,100961.81
2023-05-09T10:45:32.092Z,100957.53
2023-05-09T10:48:20.424Z,100983.25
2023-05-09T10:51:08.602Z,100978.25
2023-05-09T10:53:56.865Z,100963.41
2023-05-09T10:56:44.886Z,100970.25
2023-05-09T10:59:43.417Z,100974.38
2023-05-09T11:02:32.956Z,100972.75
2023-05-09T11:05:20.901Z,100957.78
2023-05-09T11:08:27.036Z,100969.78
2023-05-09T11:11:26.647Z,100976.72
2023-05-09T11:14:30.359Z,100975.34
2023-05-09T11:17:27.183Z,100976.63
2023-05-09T11:20:14.915Z,100975.22
2023-05-09T11:23:05.843Z,100967.25
2023-05-09T11:25:54.054Z,100968.41
2023-05-09T11:28:42.004Z,100967.50
2023-05-09T11:31:29.899Z,100959.44
2023-05-09T11:34:20.490Z,100958.63
2023-05-09T11:37:13.469Z,100959.53
2023-05-09T11:40:05.779Z,100954.44
2023-05-09T11:42:58.399Z,100957.09
2023-05-09T11:45:46.697Z,100941.19
2023-05-09T11:48:42.518Z,100949.63
2023-05-09T11:51:30.399Z,100955.56
2023-05-09T11:54:18.087Z,100934.16
2023-05-09T11:57:06.644Z,100946.63
2023-05-09T11:59:54.587Z,100943.41
2023-05-09T12:02:44.516Z,100950.88
2023-05-09T12:05:32.481Z,100944.75
2023-05-09T12:08:20.262Z,100940.50
2023-05-09T12:11:09.193Z,100953.38
2023-05-09T12:13:56.902Z,100948.78
2023-05-09T12:16:48.007Z,100922.28
2023-05-09T12:19:36.912Z,100932.38
2023-05-09T12:22:24.629Z,100911.84
2023-05-09T12:25:12.676Z,100920.00
2023-05-09T12:28:00.487Z,100891.06
2023-05-09T12:30:48.293Z,100918.13
2023-05-09T12:33:38.817Z,100917.25
2023-05-09T12:36:26.622Z,100915.28
2023-05-09T12:39:14.320Z,100899.00
2023-05-09T12:42:02.332Z,100904.38
2023-05-09T12:44:51.704Z,100890.03
2023-05-09T12:47:39.740Z,100898.34
2023-05-09T12:50:36.913Z,100883.94
2023-05-09T12:53:26.016Z,100886.88
2023-05-09T12:56:17.241Z,100892.88
2023-05-09T12:59:04.887Z,100871.34
2023-05-09T13:01:58.288Z,100887.31
2023-05-09T13:04:46.264Z,100874.56
2023-05-09T13:07:45.803Z,100887.78
2023-05-09T13:10:34.060Z,100872.75
2023-05-09T13:13:26.727Z,100884.06
2023-05-09T13:16:16.804Z,100865.16
2023-05-09T13:19:05.733Z,100845.28
2023-05-09T13:21:55.356Z,100858.38
2023-05-09T13:24:43.074Z,100868.22
2023-05-09T13:27:31.227Z,100871.41
2023-05-09T13:30:19.493Z,100859.69
2023-05-09T13:33:24.089Z,100840.28
2023-05-09T13:36:13.196Z,100850.75
2023-05-09T13:39:01.053Z,100851.56
2023-05-09T13:41:53.221Z,100861.31
2023-05-09T13:44:42.082Z,100855.53
2023-05-09T13:47:29.880Z,100843.88
2023-05-09T13:50:18.147Z,100850.78
2023-05-09T13:53:06.052Z,100856.94
2023-05-09T13:55:53.744Z,100845.22
2023-05-09T13:58:41.436Z,100843.97
2023-05-09T14:01:29.221Z,100837.44
2023-05-09T14:04:19.187Z,100838.19
2023-05-09T14:07:07.003Z,100804.72
2023-05-09T14:10:08.194Z,100832.19
2023-05-09T14:13:31.586Z,100796.84
2023-05-09T14:16:20.426Z,100845.16
2023-05-09T14:19:08.074Z,100845.03
2023-05-09T14:21:55.997Z,100851.50
2023-05-09T14:24:43.681Z,100826.34
2023-05-09T14:27:37.283Z,100848.19
2023-05-09T14:30:26.793Z,100850.34
2023-05-09T14:33:15.044Z,100845.75
2023-05-09T14:36:03.404Z,100841.19
2023-05-09T14:38:51.313Z,100846.13
2023-05-09T14:41:39.068Z,100839.88
2023-05-09T14:44:27.295Z,100836.38
2023-05-09T14:47:15.048Z,100823.31
2023-05-09T14:50:03.433Z,100844.59
2023-05-09T14:52:51.464Z,100840.41
2023-05-09T14:55:39.168Z,100836.19
2023-05-09T14:58:32.160Z,100826.72
2023-05-09T15:01:20.266Z,100802.72
2023-05-09T15:04:08.126Z,100833.06
2023-05-09T15:06:56.444Z,100828.06
2023-05-09T15:09:44.198Z,100821.63
2023-05-09T15:12:38.408Z,100802.47
2023-05-09T15:15:27.790Z,100817.94
2023-05-09T15:18:28.149Z,100823.25
2023-05-09T15:21:21.839Z,100816.13
2023-05-09T15:24:10.031Z,100826.09
2023-05-09T15:27:20.547Z,100820.06
2023-05-09T15:30:12.056Z,100755.84
2023-05-09T15:33:02.596Z,100814.72
2023-05-09T15:35:50.863Z,100815.72
2023-05-09T15:38:41.008Z,100813.84
2023-05-09T15:41:31.988Z,100812.84
2023-05-09T15:44:37.172Z,100813.03
2023-05-09T15:47:28.160Z,100817.66
2023-05-09T15:50:17.356Z,100814.00
2023-05-09T15:53:05.782Z,100813.53
2023-05-09T15:55:53.499Z,100790.25
2023-05-09T15:58:41.426Z,100793.59
2023-05-09T16:01:29.080Z,100809.94
2023-05-09T16:04:16.853Z,100807.66
2023-05-09T16:07:04.702Z,100819.75
2023-05-09T16:09:52.557Z,100813.97
2023-05-09T16:12:42.687Z,100816.81
2023-05-09T16:15:33.040Z,100821.47
2023-05-09T16:18:22.858Z,100814.69
2023-05-09T16:21:15.831Z,100807.53
2023-05-09T16:24:06.791Z,100813.56
2023-05-09T16:26:57.780Z,100814.56
2023-05-09T16:29:45.620Z,100814.56
2023-05-09T16:32:36.590Z,100809.66
2023-05-09T16:35:24.449Z,100808.88
2023-05-09T16:38:13.689Z,100808.38
2023-05-09T16:41:02.792Z,100805.72
2023-05-09T16:43:50.610Z,100823.91
2023-05-09T16:46:38.310Z,100828.47
2023-05-09T16:49:26.154Z,100835.63
2023-05-09T16:52:13.991Z,100830.19
2023-05-09T16:55:02.128Z,100819.28
2023-05-09T16:57:49.994Z,100801.19
2023-05-09T17:00:38.149Z,100822.28
2023-05-09T17:03:26.231Z,100812.59
2023-05-09T17:06:14.116Z,100808.03
2023-05-09T17:09:01.943Z,100820.69
2023-05-09T17:11:55.310Z,100812.16
2023-05-09T17:14:46.037Z,100797.44
2023-05-09T17:17:34.865Z,100817.97
2023-05-09T17:20:23.245Z,100809.81
2023-05-09T17:23:10.854Z,100821.09
2023-05-09T17:25:58.557Z,100823.16
2023-05-09T17:28:46.709Z,100817.03
2023-05-09T17:31:37.044Z,100821.09
2023-05-09T17:34:24.968Z,100776.53
2023-05-09T17:37:13.191Z,100824.13
2023-05-09T17:40:01.148Z,100821.44
2023-05-09T17:42:49.232Z,100817.88
2023-05-09T17:45:38.272Z,100815.91
2023-05-09T17:48:26.096Z,100830.91
2023-05-09T17:51:13.934Z,100806.63
2023-05-09T17:54:01.717Z,100825.41
2023-05-09T17:56:52.540Z,100837.41
2023-05-09T17:59:41.610Z,100830.94
2023-05-09T18:02:29.366Z,100822.91
2023-05-09T18:05:17.286Z,100833.38
2023-05-09T18:08:13.921Z,100814.91
2023-05-09T18:11:02.321Z,100832.09
2023-05-09T18:13:51.357Z,100840.63
2023-05-09T18:16:39.148Z,100848.34
2023-05-09T18:19:26.943Z,100851.72
2023-05-09T18:22:15.883Z,100825.44
2023-05-09T18:25:12.487Z,100842.28
2023-05-09T18:28:12.888Z,100850.44
2023-05-09T18:31:01.521Z,100860.13
2023-05-09T18:33:49.448Z,100853.13
2023-05-09T18:36:38.270Z,100853.13
2023-05-09T18:39:31.375Z,100865.00
2023-05-09T18:42:19.548Z,100863.50
2023-05-09T18:45:09.075Z,100861.19
2023-05-09T18:47:56.839Z,100851.38
2023-05-09T18:50:44.929Z,100829.13
2023-05-09T18:53:33.002Z,100848.59
2023-05-09T18:56:22.335Z,100853.13
2023-05-09T18:59:12.711Z,100864.38
2023-05-09T19:02:00.385Z,100855.88
2023-05-09T19:04:50.671Z,100822.66
2023-05-09T19:07:39.234Z,100856.78
2023-05-09T19:10:26.984Z,100863.22
2023-05-09T19:13:16.536Z,100848.94
2023-05-09T19:16:08.979Z,100856.19
2023-05-09T19:19:02.072Z,100850.31
2023-05-09T19:21:50.319Z,100855.72
2023-05-09T19:24:38.284Z,100851.19
2023-05-09T19:27:26.031Z,100857.41
2023-05-09T19:30:15.621Z,100865.72
2023-05-09T19:33:03.632Z,100850.22
2023-05-09T19:35:51.415Z,100854.28
2023-05-09T19:38:39.239Z,100856.09
2023-05-09T19:41:26.991Z,100823.06
2023-05-09T19:44:14.779Z,100852.03
2023-05-09T19:47:05.378Z,100863.25
2023-05-09T19:49:54.145Z,100852.97
2023-05-09T19:52:41.895Z,100851.22
2023-05-09T19:55:29.533Z,100857.22
2023-05-09T19:58:17.853Z,100863.13
2023-05-09T20:01:07.176Z,100835.88
2023-05-09T20:03:56.999Z,100854.44
2023-05-09T20:06:45.536Z,100854.19
2023-05-09T20:09:33.333Z,100856.34
2023-05-09T20:12:21.082Z,100853.75
2023-05-09T20:15:09.213Z,100843.75
2023-05-09T20:17:56.985Z,100814.78
2023-05-09T20:20:44.850Z,100836.16
2023-05-09T20:23:32.499Z,100832.59
2023-05-09T20:26:23.907Z,100836.97
2023-05-09T20:29:12.976Z,100840.88
2023-05-09T20:32:00.838Z,100840.44
2023-05-09T20:34:48.961Z,100832.50
2023-05-09T20:37:37.241Z,100837.72
2023-05-09T20:40:25.029Z,100842.94
2023-05-09T20:43:12.811Z,100843.72
2023-05-09T20:46:01.361Z,100840.97
2023-05-09T20:48:49.020Z,100830.50
2023-05-09T20:51:36.710Z,100844.19
2023-05-09T20:54:24.616Z,100851.47
2023-05-09T20:57:12.214Z,100833.75
2023-05-09T21:00:00.244Z,100838.88
2023-05-09T21:02:48.090Z,100838.16
2023-05-09T21:05:35.816Z,100826.38
2023-05-09T21:08:23.580Z,100838.47
2023-05-09T21:11:11.294Z,100832.66
2023-05-09T21:13:58.960Z,100841.47
2023-05-09T21:16:46.946Z,100827.06
2023-05-09T21:19:34.935Z,100806.19
2023-05-09T21:22:25.519Z,100826.31
2023-05-09T21:25:13.227Z,100834.06
2023-05-09T21:28:01.008Z,100828.22
2023-05-09T21:30:52.707Z,100825.78
2023-05-09T21:33:40.583Z,100818.78
2023-05-09T21:36:29.305Z,100811.91
2023-05-09T21:39:16.960Z,100833.66
2023-05-09T21:42:04.622Z,100820.91
2023-05-09T21:44:52.316Z,100828.66
2023-05-09T21:47:40.290Z,100819.28
2023-05-09T21:50:28.112Z,100816.19
2023-05-09T21:53:15.795Z,100811.75
2023-05-09T21:56:03.685Z,100786.31
2023-05-09T21:58:51.563Z,100802.31
2023-05-09T22:01:39.428Z,100810.41
2023-05-09T22:04:27.175Z,100803.03
2023-05-09T22:07:14.941Z,100803.03
2023-05-09T22:10:03.809Z,100790.16
2023-05-09T22:12:51.652Z,100795.34
2023-05-09T22:15:39.521Z,100794.28
2023-05-09T22:18:27.447Z,100800.53
2023-05-09T22:21:15.153Z,100796.91
2023-05-09T22:24:02.945Z,100801.03
2023-05-09T22:26:50.717Z,100761.41
2023-05-09T22:29:38.601Z,100789.00
2023-05-09T22:32:26.333Z,100784.69
2023-05-09T22:35:14.107Z,100778.38
2023-05-09T22:38:03.533Z,100763.63
2023-05-09T22:40:51.285Z,100799.22
2023-05-09T22:43:39.784Z,100776.06
2023-05-09T22:46:27.792Z,100781.72
2023-05-09T22:49:15.642Z,100778.16
2023-05-09T22:52:03.537Z,100771.91
2023-05-09T22:54:51.269Z,100761.16
2023-05-09T22:57:39.013Z,100747.38
2023-05-09T23:00:26.752Z,100762.78
2023-05-09T23:03:14.529Z,100755.38
2023-05-09T23:06:02.298Z,100765.38
2023-05-09T23:08:50.052Z,100757.53
2023-05-09T23:11:38.095Z,100762.78
2023-05-09T23:14:25.781Z,100766.56
2023-05-09T23:17:13.539Z,100757.41
2023-05-09T23:20:01.817Z,100759.16
2023-05-09T23:23:01.296Z,100743.00
2023-05-09T23:25:48.890Z,100749.31
2023-05-09T23:28:36.642Z,100747.25
2023-05-09T23:31:24.401Z,100708.03
2023-05-09T23:34:12.071Z,100716.28
2023-05-09T23:36:59.729Z,100632.28
2023-05-09T23:39:47.361Z,100701.53
2023-05-09T23:42:35.103Z,100705.44
2023-05-09T23:45:23.104Z,100708.06
2023-05-09T23:48:11.316Z,100712.44
2023-05-09T23:50:59.006Z,100735.38
2023-05-09T23:53:46.862Z,100737.63
2023-05-09T23:56:34.582Z,100722.78
2023-05-09T23:59:22.280Z,100722.69
